createdAt,value
2023-01-20T00:03:03.804Z,96168.34
2023-01-20T00:08:06.013Z,96169.13
2023-01-20T00:13:09.346Z,96172.03
2023-01-20T00:18:11.761Z,96175.59
2023-01-20T00:23:13.971Z,96178.69
2023-01-20T00:28:17.559Z,96184.91
2023-01-20T00:33:19.550Z,96189.56
2023-01-20T00:38:21.665Z,96194.22
2023-01-20T00:43:24.984Z,96198.28
2023-01-20T00:48:27.032Z,96217.28
2023-01-20T00:53:29.309Z,96231.00
2023-01-20T00:58:32.850Z,96250.34
2023-01-20T01:03:34.856Z,96239.63
2023-01-20T01:08:36.969Z,96254.22
2023-01-20T01:13:40.685Z,96247.22
2023-01-20T01:18:43.373Z,96250.28
2023-01-20T01:23:45.437Z,96239.84
2023-01-20T01:28:49.925Z,96215.22
2023-01-20T01:33:51.931Z,96212.50
2023-01-20T01:38:57.221Z,96218.88
2023-01-20T01:44:13.561Z,96229.47
2023-01-20T01:49:20.721Z,96217.50
2023-01-20T01:54:26.407Z,96205.06
2023-01-20T01:59:30.097Z,96204.97
2023-01-20T02:04:33.836Z,96220.16
2023-01-20T02:09:36.294Z,96223.94
2023-01-20T02:14:42.778Z,96219.44
2023-01-20T02:20:17.805Z,96241.44
2023-01-20T02:25:43.941Z,96245.44
2023-01-20T02:31:11.464Z,96227.78
2023-01-20T02:36:23.353Z,96222.63
2023-01-20T02:41:34.105Z,96222.75
2023-01-20T02:46:38.358Z,96226.88
2023-01-20T02:51:48.026Z,96238.78
2023-01-20T02:56:52.908Z,96243.38
2023-01-20T03:02:02.442Z,96246.44
2023-01-20T03:07:06.570Z,96248.28
2023-01-20T03:12:15.161Z,96253.94
2023-01-20T03:17:17.194Z,96254.47
2023-01-20T03:22:20.742Z,96253.94
2023-01-20T03:27:22.821Z,96261.41
2023-01-20T03:32:26.952Z,96257.97
2023-01-20T03:37:30.300Z,96268.03
2023-01-20T03:42:39.614Z,96262.59
2023-01-20T03:47:57.610Z,96264.13
2023-01-20T03:53:10.693Z,96266.72
2023-01-20T03:58:16.545Z,96277.16
2023-01-20T04:03:21.222Z,96275.81
2023-01-20T04:08:29.984Z,96280.63
2023-01-20T04:13:32.218Z,96275.03
2023-01-20T04:18:34.201Z,96292.41
2023-01-20T04:23:42.013Z,96289.50
2023-01-20T04:28:43.961Z,96292.75
2023-01-20T04:33:45.936Z,96301.41
2023-01-20T04:38:49.227Z,96310.25
2023-01-20T04:43:51.232Z,96315.88
2023-01-20T04:48:53.193Z,96320.31
2023-01-20T04:53:58.222Z,96327.72
2023-01-20T04:59:00.282Z,96329.44
2023-01-20T05:04:02.335Z,96326.41
2023-01-20T05:09:05.795Z,96332.91
2023-01-20T05:14:08.076Z,96333.97
2023-01-20T05:19:11.072Z,96331.09
2023-01-20T05:24:14.474Z,96334.84
2023-01-20T05:29:16.460Z,96336.75
2023-01-20T05:34:18.532Z,96344.09
2023-01-20T05:39:21.891Z,96344.59
2023-01-20T05:44:24.025Z,96351.69
2023-01-20T05:49:26.034Z,96346.81
2023-01-20T05:54:29.349Z,96359.97
2023-01-20T05:59:31.520Z,96365.22
2023-01-20T06:04:33.588Z,96371.19
2023-01-20T06:09:36.923Z,96374.09
2023-01-20T06:14:38.941Z,96376.16
2023-01-20T06:19:40.925Z,96368.38
2023-01-20T06:24:44.234Z,96378.50
2023-01-20T06:29:46.217Z,96384.84
2023-01-20T06:34:48.250Z,96383.25
2023-01-20T06:39:51.551Z,96382.22
2023-01-20T06:44:53.563Z,96398.59
2023-01-20T06:49:55.476Z,96390.78
2023-01-20T06:54:58.757Z,96392.22
2023-01-20T07:00:00.726Z,96390.63
2023-01-20T07:05:03.122Z,96404.50
2023-01-20T07:10:07.287Z,96408.66
2023-01-20T07:15:09.876Z,96408.75
2023-01-20T07:20:12.615Z,96401.19
2023-01-20T07:25:16.202Z,96401.75
2023-01-20T07:30:18.827Z,96398.22
2023-01-20T07:35:20.764Z,96408.47
2023-01-20T07:40:24.091Z,96413.94
2023-01-20T07:45:26.193Z,96419.16
2023-01-20T07:50:28.249Z,96421.25
2023-01-20T07:55:31.636Z,96431.03
2023-01-20T08:00:34.053Z,96420.16
2023-01-20T08:05:36.011Z,96430.50
2023-01-20T08:10:39.411Z,96440.06
2023-01-20T08:15:41.478Z,96447.63
2023-01-20T08:20:43.609Z,96455.28
2023-01-20T08:25:46.900Z,96459.09
2023-01-20T08:30:48.976Z,96460.91
2023-01-20T08:35:51.255Z,96465.69
2023-01-20T08:40:54.606Z,96479.59
2023-01-20T08:46:00.128Z,96479.25
2023-01-20T08:51:04.335Z,96475.97
2023-01-20T08:56:08.368Z,96495.41
2023-01-20T09:01:11.926Z,96497.78
2023-01-20T09:06:14.331Z,96495.16
2023-01-20T09:11:19.792Z,96503.91
2023-01-20T09:16:21.876Z,96506.16
2023-01-20T09:21:23.888Z,96506.00
2023-01-20T09:26:35.842Z,96491.31
2023-01-20T09:31:39.427Z,96500.72
2023-01-20T09:36:41.565Z,96490.97
2023-01-20T09:42:19.835Z,96489.09
2023-01-20T09:47:30.789Z,96488.00
2023-01-20T09:52:53.892Z,96491.78
2023-01-20T09:58:14.859Z,96490.59
2023-01-20T10:03:24.661Z,96482.44
2023-01-20T10:08:32.750Z,96482.81
2023-01-20T10:13:41.013Z,96482.16
2023-01-20T10:18:48.125Z,96482.53
2023-01-20T10:23:55.441Z,96482.41
2023-01-20T10:29:01.005Z,96479.34
2023-01-20T10:34:11.578Z,96473.09
2023-01-20T10:39:25.119Z,96480.31
2023-01-20T10:44:28.972Z,96482.19
2023-01-20T10:49:49.431Z,96478.50
2023-01-20T10:54:56.402Z,96479.56
2023-01-20T11:00:02.245Z,96487.09
2023-01-20T11:05:17.157Z,96484.81
2023-01-20T11:10:21.136Z,96469.81
2023-01-20T11:15:27.523Z,96462.69
2023-01-20T11:20:29.715Z,96464.25
2023-01-20T11:25:32.772Z,96448.88
2023-01-20T11:30:36.158Z,96440.00
2023-01-20T11:35:38.199Z,96437.41
2023-01-20T11:40:52.375Z,96425.44
2023-01-20T11:46:10.306Z,96436.88
2023-01-20T11:51:20.941Z,96424.53
2023-01-20T11:56:24.928Z,96418.31
2023-01-20T12:01:30.135Z,96425.22
2023-01-20T12:06:36.396Z,96426.03
2023-01-20T12:11:42.833Z,96433.66
2023-01-20T12:16:48.223Z,96432.03
2023-01-20T12:21:52.666Z,96429.63
2023-01-20T12:26:54.835Z,96437.31
2023-01-20T12:31:58.840Z,96440.66
2023-01-20T12:37:16.703Z,96445.88
2023-01-20T12:42:49.159Z,96448.56
2023-01-20T12:48:04.414Z,96455.84
2023-01-20T12:53:25.453Z,96459.78
2023-01-20T12:58:40.209Z,96465.75
2023-01-20T13:04:02.371Z,96480.13
2023-01-20T13:09:14.775Z,96487.47
2023-01-20T13:14:23.220Z,96490.22
2023-01-20T13:19:32.432Z,96490.16
2023-01-20T13:24:34.970Z,96504.44
2023-01-20T13:29:53.644Z,96519.84
2023-01-20T13:34:57.774Z,96519.84
2023-01-20T13:40:00.457Z,96523.34
2023-01-20T13:45:16.979Z,96515.75
2023-01-20T13:50:26.338Z,96519.13
2023-01-20T13:55:29.999Z,96518.84
2023-01-20T14:00:31.989Z,96515.22
2023-01-20T14:05:35.580Z,96515.16
2023-01-20T14:10:37.622Z,96505.84
2023-01-20T14:15:40.346Z,96499.16
2023-01-20T14:20:56.494Z,96509.81
2023-01-20T14:26:20.660Z,96509.41
2023-01-20T14:31:35.051Z,96501.91
2023-01-20T14:36:38.471Z,96506.16
2023-01-20T14:41:48.469Z,96514.91
2023-01-20T14:46:53.612Z,96516.91
2023-01-20T14:51:57.413Z,96522.16
2023-01-20T14:57:17.561Z,96528.47
2023-01-20T15:02:28.374Z,96526.78
2023-01-20T15:07:32.042Z,96529.09
2023-01-20T15:12:39.405Z,96531.38
2023-01-20T15:18:18.177Z,96533.28
2023-01-20T15:23:29.988Z,96538.31
2023-01-20T15:28:32.013Z,96542.50
2023-01-20T15:33:34.005Z,96545.63
2023-01-20T15:38:37.317Z,96554.44
2023-01-20T15:43:42.358Z,96554.09
2023-01-20T15:48:45.001Z,96550.19
2023-01-20T15:53:48.659Z,96558.06
2023-01-20T15:58:51.157Z,96560.72
2023-01-20T16:03:55.233Z,96560.75
2023-01-20T16:09:01.075Z,96554.09
2023-01-20T16:14:03.160Z,96561.09
2023-01-20T16:19:06.684Z,96555.09
2023-01-20T16:24:09.990Z,96550.31
2023-01-20T16:29:11.992Z,96554.25
2023-01-20T16:34:13.974Z,96567.19
2023-01-20T16:39:17.307Z,96563.63
2023-01-20T16:44:19.289Z,96564.41
2023-01-20T16:49:22.753Z,96563.69
2023-01-20T16:54:26.319Z,96568.00
2023-01-20T16:59:28.977Z,96574.66
2023-01-20T17:04:31.150Z,96573.06
2023-01-20T17:09:34.623Z,96579.53
2023-01-20T17:14:37.463Z,96581.44
2023-01-20T17:19:39.416Z,96591.91
2023-01-20T17:24:42.770Z,96583.00
2023-01-20T17:29:44.748Z,96582.13
2023-01-20T17:34:47.514Z,96587.91
2023-01-20T17:39:50.994Z,96586.44
2023-01-20T17:44:52.970Z,96575.59
2023-01-20T17:49:55.006Z,96580.53
2023-01-20T17:54:58.315Z,96586.72
2023-01-20T18:00:00.350Z,96576.31
2023-01-20T18:05:03.004Z,96573.56
2023-01-20T18:10:09.666Z,96572.81
2023-01-20T18:15:12.988Z,96573.56
2023-01-20T18:20:18.092Z,96574.44
2023-01-20T18:25:21.545Z,96576.22
2023-01-20T18:30:23.564Z,96581.16
2023-01-20T18:35:25.660Z,96575.78
2023-01-20T18:40:29.374Z,96571.09
2023-01-20T18:45:31.359Z,96568.09
2023-01-20T18:50:33.355Z,96564.16
2023-01-20T18:55:36.725Z,96563.34
2023-01-20T19:00:38.865Z,96561.00
2023-01-20T19:05:40.941Z,96569.00
2023-01-20T19:10:46.005Z,96567.31
2023-01-20T19:15:48.023Z,96554.09
2023-01-20T19:20:50.710Z,96553.25
2023-01-20T19:26:01.228Z,96547.88
2023-01-20T19:31:03.973Z,96558.25
2023-01-20T19:36:08.367Z,96545.22
2023-01-20T19:41:13.842Z,96552.66
2023-01-20T19:46:18.578Z,96555.78
2023-01-20T19:51:20.736Z,96552.66
2023-01-20T19:56:25.534Z,96546.34
2023-01-20T20:01:31.426Z,96559.63
2023-01-20T20:06:36.151Z,96563.88
2023-01-20T20:11:39.860Z,96548.59
2023-01-20T20:16:42.257Z,96554.59
2023-01-20T20:21:44.907Z,96541.91
2023-01-20T20:26:48.280Z,96534.72
2023-01-20T20:31:50.357Z,96520.03
2023-01-20T20:36:52.495Z,96516.00
2023-01-20T20:41:56.581Z,96515.63
2023-01-20T20:46:58.874Z,96516.84
2023-01-20T20:52:00.887Z,96521.09
2023-01-20T20:57:04.184Z,96531.69
2023-01-20T21:02:06.251Z,96524.41
2023-01-20T21:07:08.217Z,96517.72
2023-01-20T21:12:11.768Z,96516.94
2023-01-20T21:17:13.811Z,96500.56
2023-01-20T21:22:15.839Z,96502.75
2023-01-20T21:27:19.139Z,96499.22
2023-01-20T21:32:21.153Z,96498.59
2023-01-20T21:37:23.115Z,96495.97
2023-01-20T21:42:26.676Z,96495.91
2023-01-20T21:47:28.704Z,96496.06
2023-01-20T21:52:42.990Z,96492.81
2023-01-20T21:57:46.872Z,96488.28
2023-01-20T22:02:49.004Z,96492.19
2023-01-20T22:07:51.040Z,96491.72
2023-01-20T22:12:54.960Z,96490.47
2023-01-20T22:17:57.010Z,96489.47
2023-01-20T22:22:58.965Z,96487.22
2023-01-20T22:28:02.429Z,96479.69
2023-01-20T22:33:04.390Z,96475.34
2023-01-20T22:38:07.170Z,96482.34
2023-01-20T22:43:10.498Z,96477.69
2023-01-20T22:48:12.486Z,96474.66
2023-01-20T22:53:14.644Z,96482.78
2023-01-20T22:58:18.148Z,96483.22
2023-01-20T23:03:20.189Z,96482.41
2023-01-20T23:08:22.513Z,96481.59
2023-01-20T23:13:26.339Z,96478.06
2023-01-20T23:18:29.502Z,96482.34
2023-01-20T23:23:31.780Z,96481.06
2023-01-20T23:28:35.521Z,96485.03
2023-01-20T23:33:38.044Z,96491.59
2023-01-20T23:38:40.036Z,96485.50
2023-01-20T23:43:43.492Z,96495.69
2023-01-20T23:48:46.647Z,96495.16
2023-01-20T23:53:48.685Z,96493.53
2023-01-20T23:58:52.408Z,96495.25
